createdAt,value
2018-06-28T00:01:04.819Z,15.10
2018-06-28T00:03:34.252Z,15.00
2018-06-28T00:06:03.815Z,14.90
2018-06-28T00:08:33.383Z,14.90
2018-06-28T00:11:02.919Z,14.80
2018-06-28T00:13:32.523Z,14.80
2018-06-28T00:16:01.968Z,14.80
2018-06-28T00:18:32.364Z,14.70
2018-06-28T00:21:01.907Z,14.70
2018-06-28T00:23:32.458Z,14.70
2018-06-28T00:26:01.974Z,14.60
2018-06-28T00:31:01.315Z,14.50
2018-06-28T00:33:31.678Z,14.50
2018-06-28T00:36:01.055Z,14.50
2018-06-28T00:38:30.403Z,14.40
2018-06-28T00:40:59.966Z,14.40
2018-06-28T00:43:29.340Z,14.30
2018-06-28T00:45:58.738Z,14.40
2018-06-28T00:48:28.106Z,14.40
2018-06-28T00:50:57.493Z,14.30
2018-06-28T00:55:56.178Z,14.30
2018-06-28T00:58:25.658Z,14.20
2018-06-28T01:00:55.169Z,14.20
2018-06-28T01:03:24.707Z,14.20
2018-06-28T01:05:54.110Z,14.20
2018-06-28T01:08:23.703Z,14.10
2018-06-28T01:10:53.255Z,14.10
2018-06-28T01:13:23.276Z,14.10
2018-06-28T01:15:52.711Z,14.10
2018-06-28T01:18:22.174Z,14.00
2018-06-28T01:20:51.684Z,13.90
2018-06-28T01:23:21.163Z,13.90
2018-06-28T01:25:50.610Z,13.80
2018-06-28T01:28:20.235Z,13.70
2018-06-28T01:30:49.696Z,13.70
2018-06-28T01:33:19.127Z,13.70
2018-06-28T01:35:48.567Z,13.70
2018-06-28T01:38:17.991Z,13.70
2018-06-28T01:40:47.617Z,13.70
2018-06-28T01:43:32.946Z,13.70
2018-06-28T01:46:02.477Z,13.60
2018-06-28T01:48:33.018Z,13.60
2018-06-28T01:51:02.596Z,13.50
2018-06-28T01:53:33.592Z,13.50
2018-06-28T01:56:03.186Z,13.40
2018-06-28T01:58:32.931Z,13.40
2018-06-28T02:01:02.734Z,13.40
2018-06-28T02:03:32.919Z,13.30
2018-06-28T02:06:02.402Z,13.30
2018-06-28T02:08:32.890Z,13.30
2018-06-28T02:11:02.303Z,13.30
2018-06-28T02:13:31.746Z,13.30
2018-06-28T02:16:02.206Z,13.30
2018-06-28T02:18:31.624Z,13.30
2018-06-28T02:21:01.157Z,13.30
2018-06-28T02:23:30.731Z,13.30
2018-06-28T02:28:29.370Z,13.20
2018-06-28T02:30:58.947Z,13.30
2018-06-28T02:33:28.338Z,13.20
2018-06-28T02:35:57.918Z,13.30
2018-06-28T02:38:27.498Z,13.20
2018-06-28T02:40:56.966Z,13.20
2018-06-28T02:46:50.966Z,13.30
2018-06-28T02:49:20.529Z,13.30
2018-06-28T02:51:50.076Z,13.30
2018-06-28T02:54:19.484Z,13.20
2018-06-28T02:56:49.061Z,13.20
2018-06-28T02:59:18.550Z,13.20
2018-06-28T03:01:47.935Z,13.20
2018-06-28T03:04:17.317Z,13.20
2018-06-28T03:06:46.868Z,13.30
2018-06-28T03:09:16.331Z,13.30
2018-06-28T03:11:45.977Z,13.30
2018-06-28T03:14:15.535Z,13.20
2018-06-28T03:16:45.047Z,13.30
2018-06-28T03:19:14.551Z,13.30
2018-06-28T03:21:43.960Z,13.40
2018-06-28T03:24:13.611Z,13.40
2018-06-28T03:26:43.096Z,13.40
2018-06-28T03:29:12.518Z,13.50
2018-06-28T03:31:42.127Z,13.50
2018-06-28T03:34:11.575Z,13.50
2018-06-28T03:39:12.672Z,13.50
2018-06-28T03:41:44.342Z,13.60
2018-06-28T03:44:14.216Z,13.70
2018-06-28T03:46:43.771Z,13.80
2018-06-28T03:49:14.425Z,13.80
2018-06-28T03:51:44.044Z,13.90
2018-06-28T03:54:13.656Z,14.00
2018-06-28T03:56:43.189Z,14.10
2018-06-28T03:59:12.676Z,14.20
2018-06-28T04:01:42.158Z,14.30
2018-06-28T04:04:11.666Z,14.40
2018-06-28T04:06:41.150Z,14.50
2018-06-28T04:09:11.796Z,14.60
2018-06-28T04:11:41.695Z,14.80
2018-06-28T04:14:11.237Z,14.90
2018-06-28T04:16:40.892Z,15.00
2018-06-28T04:19:10.383Z,15.20
2018-06-28T04:21:39.892Z,15.30
2018-06-28T04:26:38.467Z,15.60
2018-06-28T04:29:07.887Z,15.80
2018-06-28T04:31:37.482Z,15.90
2018-06-28T04:34:07.042Z,16.10
2018-06-28T04:36:36.614Z,16.20
2018-06-28T04:39:08.742Z,16.40
2018-06-28T04:41:38.439Z,16.50
2018-06-28T04:47:55.431Z,16.60
2018-06-28T04:50:25.054Z,16.80
2018-06-28T04:52:54.536Z,16.90
2018-06-28T04:55:24.128Z,17.10
2018-06-28T04:57:53.497Z,17.20
2018-06-28T05:00:23.875Z,17.30
2018-06-28T05:02:53.510Z,17.50
2018-06-28T05:05:23.039Z,17.60
2018-06-28T05:07:52.476Z,17.70
2018-06-28T05:10:23.362Z,17.80
2018-06-28T05:12:52.937Z,18.00
2018-06-28T05:15:22.477Z,18.10
2018-06-28T05:17:51.906Z,18.30
2018-06-28T05:20:21.539Z,18.40
2018-06-28T05:22:50.936Z,18.40
2018-06-28T05:25:20.475Z,18.60
2018-06-28T05:27:49.949Z,18.70
2018-06-28T05:30:19.347Z,18.80
2018-06-28T05:32:50.529Z,18.80
2018-06-28T05:35:20.139Z,18.90
2018-06-28T05:37:49.771Z,18.90
2018-06-28T05:40:19.255Z,19.00
2018-06-28T05:42:48.923Z,19.10
2018-06-28T05:45:18.321Z,19.20
2018-06-28T05:47:47.743Z,19.30
2018-06-28T05:50:17.334Z,19.40
2018-06-28T05:52:46.904Z,19.50
2018-06-28T05:55:16.388Z,19.70
2018-06-28T05:57:45.834Z,19.80
2018-06-28T06:00:16.271Z,19.90
2018-06-28T06:02:45.783Z,19.90
2018-06-28T06:05:15.186Z,20.00
2018-06-28T06:07:44.754Z,20.00
2018-06-28T06:10:14.334Z,20.00
2018-06-28T06:12:43.890Z,20.10
2018-06-28T06:15:13.260Z,20.20
2018-06-28T06:17:42.798Z,20.40
2018-06-28T06:20:14.386Z,20.60
2018-06-28T06:22:43.902Z,20.70
2018-06-28T06:25:13.466Z,20.90
2018-06-28T06:27:42.858Z,20.90
2018-06-28T06:30:12.317Z,21.00
2018-06-28T06:32:45.235Z,20.90
2018-06-28T06:35:17.539Z,21.00
2018-06-28T06:37:47.026Z,21.00
2018-06-28T06:40:16.529Z,21.10
2018-06-28T06:42:47.804Z,21.30
2018-06-28T06:45:17.288Z,21.40
2018-06-28T06:47:46.735Z,21.50
2018-06-28T06:50:16.297Z,21.40
2018-06-28T06:52:45.879Z,21.50
2018-06-28T06:57:44.593Z,21.80
2018-06-28T07:00:14.155Z,22.10
2018-06-28T07:02:43.719Z,22.40
2018-06-28T07:05:13.155Z,22.80
2018-06-28T07:07:42.778Z,23.40
2018-06-28T07:13:57.623Z,23.80
2018-06-28T07:16:29.607Z,24.30
2018-06-28T07:18:59.187Z,25.70
2018-06-28T07:21:28.755Z,26.00
2018-06-28T07:23:58.329Z,26.30
2018-06-28T07:26:27.774Z,26.70
2018-06-28T07:28:57.198Z,27.10
2018-06-28T07:31:26.675Z,27.70
2018-06-28T07:33:56.413Z,28.30
2018-06-28T07:36:26.004Z,28.70
2018-06-28T07:38:56.491Z,29.10
2018-06-28T07:41:25.980Z,29.30
2018-06-28T07:43:55.433Z,29.70
2018-06-28T07:46:24.977Z,30.00
2018-06-28T07:48:54.550Z,29.90
2018-06-28T07:53:53.279Z,30.10
2018-06-28T07:56:23.236Z,30.00
2018-06-28T07:58:53.691Z,29.80
2018-06-28T08:01:23.282Z,29.80
2018-06-28T08:03:52.895Z,30.00
2018-06-28T08:06:22.552Z,30.20
2018-06-28T08:08:52.114Z,30.40
2018-06-28T08:11:21.567Z,30.50
2018-06-28T08:13:50.987Z,30.20
2018-06-28T08:16:20.383Z,29.90
2018-06-28T08:18:49.802Z,29.50
2018-06-28T08:21:19.375Z,29.30
2018-06-28T08:23:48.845Z,29.10
2018-06-28T08:26:18.257Z,28.90
2018-06-28T08:28:47.827Z,28.40
2018-06-28T08:31:19.122Z,27.70
2018-06-28T08:33:49.763Z,27.70
2018-06-28T08:36:19.323Z,27.80
2018-06-28T08:38:48.848Z,27.60
2018-06-28T08:41:18.412Z,27.30
2018-06-28T08:43:48.169Z,27.20
2018-06-28T08:46:17.727Z,27.30
2018-06-28T08:48:47.286Z,27.50
2018-06-28T08:51:16.867Z,27.50
2018-06-28T08:53:46.222Z,27.40
2018-06-28T08:56:15.632Z,27.10
2018-06-28T08:58:46.572Z,26.90
2018-06-28T09:01:16.240Z,26.80
2018-06-28T09:06:15.720Z,27.00
2018-06-28T09:08:45.245Z,27.00
2018-06-28T09:11:15.743Z,27.10
2018-06-28T09:13:45.146Z,27.20
2018-06-28T09:16:14.627Z,27.50
2018-06-28T09:18:44.055Z,27.60
2018-06-28T09:21:13.678Z,27.60
2018-06-28T09:23:43.144Z,27.70
2018-06-28T09:26:12.752Z,27.80
2018-06-28T09:28:42.207Z,27.80
2018-06-28T09:31:11.658Z,27.60
2018-06-28T09:33:41.110Z,27.40
2018-06-28T09:36:11.424Z,27.40
2018-06-28T09:38:40.846Z,27.20
2018-06-28T09:43:39.484Z,26.50
2018-06-28T09:46:08.879Z,26.20
2018-06-28T09:48:38.354Z,26.20
2018-06-28T09:51:08.071Z,26.30
2018-06-28T09:53:37.613Z,26.50
2018-06-28T09:56:07.456Z,26.70
2018-06-28T09:58:37.334Z,26.80
2018-06-28T10:01:06.936Z,27.10
2018-06-28T10:03:37.738Z,27.40
2018-06-28T10:06:07.271Z,27.60
2018-06-28T10:08:36.703Z,27.80
2018-06-28T10:11:06.280Z,27.90
2018-06-28T10:13:35.707Z,28.00
2018-06-28T10:16:05.339Z,28.20
2018-06-28T10:18:34.731Z,28.30
2018-06-28T10:21:04.734Z,28.30
2018-06-28T10:23:34.396Z,28.40
2018-06-28T10:26:03.991Z,28.40
2018-06-28T10:28:34.459Z,28.30
2018-06-28T10:31:04.042Z,28.20
2018-06-28T10:33:34.751Z,28.20
2018-06-28T10:39:52.917Z,28.30
2018-06-28T10:42:23.876Z,28.40
2018-06-28T10:44:53.260Z,28.20
2018-06-28T10:50:01.194Z,28.30
2018-06-28T10:52:30.786Z,28.70
2018-06-28T10:55:00.302Z,28.90
2018-06-28T10:57:29.951Z,29.10
2018-06-28T10:59:59.407Z,29.20
2018-06-28T11:02:29.678Z,29.30
2018-06-28T11:04:59.038Z,29.40
2018-06-28T11:07:28.397Z,29.40
2018-06-28T11:09:57.995Z,29.20
2018-06-28T11:12:27.475Z,29.10
2018-06-28T11:14:57.036Z,29.20
2018-06-28T11:17:26.561Z,29.20
2018-06-28T11:19:56.160Z,29.40
2018-06-28T11:22:25.900Z,29.60
2018-06-28T11:24:55.502Z,29.70
2018-06-28T11:27:25.080Z,29.70
2018-06-28T11:29:54.670Z,29.70
2018-06-28T11:34:53.225Z,29.70
2018-06-28T11:37:22.662Z,29.80
2018-06-28T11:39:52.423Z,29.80
2018-06-28T11:42:21.862Z,29.90
2018-06-28T11:44:51.342Z,30.00
2018-06-28T11:47:20.800Z,30.10
2018-06-28T11:49:50.359Z,30.10
2018-06-28T11:52:19.996Z,30.10
2018-06-28T11:54:49.402Z,30.20
2018-06-28T11:57:18.831Z,30.30
2018-06-28T11:59:48.465Z,30.30
2018-06-28T12:02:18.021Z,30.30
2018-06-28T12:04:47.596Z,30.30
2018-06-28T12:07:17.172Z,30.40
2018-06-28T12:12:15.863Z,30.50
2018-06-28T12:14:45.341Z,30.70
2018-06-28T12:17:14.776Z,30.80
2018-06-28T12:19:44.294Z,30.90
2018-06-28T12:22:13.671Z,31.00
2018-06-28T12:24:43.276Z,31.00
2018-06-28T12:27:13.502Z,31.10
2018-06-28T12:29:43.186Z,31.00
2018-06-28T12:32:12.658Z,31.00
2018-06-28T12:34:42.077Z,30.80
2018-06-28T12:37:11.679Z,30.90
2018-06-28T12:39:41.135Z,30.80
2018-06-28T12:42:10.720Z,30.90
2018-06-28T12:48:00.775Z,31.10
2018-06-28T12:50:30.254Z,31.20
2018-06-28T12:53:02.546Z,31.30
2018-06-28T12:56:47.386Z,31.20
2018-06-28T12:59:18.280Z,31.10
2018-06-28T13:01:48.327Z,31.00
2018-06-28T13:10:53.541Z,31.10
2018-06-28T13:13:23.084Z,31.20
2018-06-28T13:15:52.552Z,31.40
2018-06-28T13:18:22.001Z,31.50
2018-06-28T13:20:51.561Z,31.40
2018-06-28T13:23:20.985Z,31.30
2018-06-28T13:25:50.436Z,31.40
2018-06-28T13:28:19.835Z,31.40
2018-06-28T13:30:49.416Z,31.50
2018-06-28T13:33:18.890Z,31.50
2018-06-28T13:35:48.606Z,31.60
2018-06-28T13:38:18.143Z,31.70
2018-06-28T13:40:47.734Z,31.70
2018-06-28T13:43:17.198Z,31.80
2018-06-28T13:45:46.759Z,31.70
2018-06-28T13:48:16.615Z,31.70
2018-06-28T13:50:46.275Z,31.60
2018-06-28T13:53:15.727Z,31.70
2018-06-28T13:55:45.243Z,31.80
2018-06-28T13:58:14.723Z,32.00
2018-06-28T14:00:44.242Z,32.10
2018-06-28T14:03:13.825Z,32.20
2018-06-28T14:05:43.838Z,32.20
2018-06-28T14:10:43.589Z,32.30
2018-06-28T14:13:13.046Z,32.20
2018-06-28T14:15:42.565Z,32.20
2018-06-28T14:18:12.105Z,32.20
2018-06-28T14:20:41.625Z,32.20
2018-06-28T14:23:10.991Z,32.20
2018-06-28T14:25:40.653Z,32.30
2018-06-28T14:28:10.067Z,32.20
2018-06-28T14:30:39.470Z,32.10
2018-06-28T14:35:38.120Z,32.10
2018-06-28T14:38:07.593Z,32.20
2018-06-28T14:40:37.198Z,32.30
2018-06-28T14:43:06.847Z,32.40
2018-06-28T14:45:36.406Z,32.40
2018-06-28T14:48:06.076Z,32.40
2018-06-28T14:50:35.705Z,32.60
2018-06-28T14:53:05.228Z,32.60
2018-06-28T14:55:35.394Z,32.70
2018-06-28T14:58:04.938Z,32.80
2018-06-28T15:00:35.397Z,32.80
2018-06-28T15:03:05.046Z,32.80
2018-06-28T15:05:35.314Z,32.90
2018-06-28T15:08:04.953Z,32.90
2018-06-28T15:30:06.392Z,32.90
2018-06-28T15:32:35.866Z,33.00
2018-06-28T15:35:05.507Z,32.80
2018-06-28T15:37:35.397Z,32.70
2018-06-28T15:43:53.567Z,32.60
2018-06-28T15:46:23.193Z,32.70
2018-06-28T15:48:52.827Z,32.80
2018-06-28T15:51:22.468Z,32.80
2018-06-28T15:53:51.913Z,32.90
2018-06-28T15:56:21.595Z,32.90
2018-06-28T15:58:51.045Z,32.90
2018-06-28T16:01:20.691Z,32.90
2018-06-28T16:03:50.508Z,32.90
2018-06-28T16:06:24.489Z,33.00
2018-06-28T16:08:54.090Z,33.00
2018-06-28T16:11:23.883Z,33.00
2018-06-28T16:13:53.377Z,33.00
2018-06-28T16:16:22.862Z,33.10
2018-06-28T16:18:52.343Z,33.00
2018-06-28T16:21:22.089Z,32.90
2018-06-28T16:23:51.666Z,32.80
2018-06-28T16:26:21.259Z,32.80
2018-06-28T16:32:57.647Z,32.70
2018-06-28T16:35:27.067Z,32.70
2018-06-28T16:37:56.508Z,32.60
2018-06-28T16:40:25.908Z,32.60
2018-06-28T16:42:55.682Z,32.60
2018-06-28T16:45:25.252Z,32.60
2018-06-28T16:47:54.827Z,32.60
2018-06-28T16:50:24.235Z,32.60
2018-06-28T16:52:53.786Z,32.40
2018-06-28T16:55:23.434Z,32.20
2018-06-28T16:57:53.087Z,32.20
2018-06-28T17:00:23.297Z,32.20
2018-06-28T17:02:59.007Z,32.20
2018-06-28T17:05:28.512Z,32.20
2018-06-28T17:07:57.971Z,32.10
2018-06-28T17:10:27.388Z,31.90
2018-06-28T17:12:57.104Z,32.00
2018-06-28T17:15:27.008Z,31.90
2018-06-28T17:17:56.703Z,31.60
2018-06-28T17:20:26.333Z,31.50
2018-06-28T17:22:55.934Z,31.50
2018-06-28T17:27:54.719Z,31.50
2018-06-28T17:30:24.169Z,31.40
2018-06-28T17:32:54.306Z,31.30
2018-06-28T17:35:23.677Z,31.30
2018-06-28T17:37:53.091Z,31.20
2018-06-28T17:40:22.602Z,31.20
2018-06-28T17:42:52.245Z,31.00
2018-06-28T17:45:21.808Z,30.90
2018-06-28T17:47:51.343Z,30.90
2018-06-28T17:50:20.735Z,30.90
2018-06-28T17:52:50.171Z,30.80
2018-06-28T17:55:19.874Z,30.80
2018-06-28T17:57:49.363Z,30.70
2018-06-28T18:01:43.534Z,30.70
2018-06-28T18:04:13.006Z,30.60
2018-06-28T18:06:42.474Z,30.50
2018-06-28T18:09:11.967Z,30.20
2018-06-28T18:11:41.559Z,30.10
2018-06-28T18:14:11.018Z,29.90
2018-06-28T18:16:40.569Z,29.90
2018-06-28T18:19:10.067Z,29.80
2018-06-28T18:21:40.099Z,29.80
2018-06-28T18:24:12.312Z,29.70
2018-06-28T18:30:53.794Z,29.70
2018-06-28T18:33:23.274Z,29.60
2018-06-28T18:35:52.676Z,29.40
2018-06-28T18:38:22.183Z,29.40
2018-06-28T18:40:52.011Z,29.30
2018-06-28T18:43:21.595Z,29.20
2018-06-28T18:45:51.195Z,29.20
2018-06-28T18:48:20.819Z,29.20
2018-06-28T18:50:50.532Z,29.10
2018-06-28T18:53:20.119Z,29.00
2018-06-28T18:55:49.783Z,28.90
2018-06-28T18:58:19.437Z,28.80
2018-06-28T19:00:48.883Z,28.70
2018-06-28T19:03:18.483Z,28.70
2018-06-28T19:05:47.956Z,28.60
2018-06-28T19:08:17.432Z,28.60
2018-06-28T19:10:55.181Z,28.60
2018-06-28T19:13:28.144Z,28.50
2018-06-28T19:16:03.948Z,28.40
2018-06-28T19:18:33.463Z,28.30
2018-06-28T19:21:08.062Z,28.30
2018-06-28T19:23:42.831Z,28.20
2018-06-28T19:26:12.457Z,28.10
2018-06-28T19:28:42.052Z,28.10
2018-06-28T19:31:16.927Z,28.00
2018-06-28T19:33:46.372Z,28.00
2018-06-28T19:38:50.171Z,27.90
2018-06-28T19:41:25.021Z,27.80
2018-06-28T19:43:54.438Z,27.70
2018-06-28T19:46:23.890Z,27.60
2018-06-28T19:48:53.294Z,27.50
2018-06-28T19:51:29.412Z,27.40
2018-06-28T19:53:58.887Z,27.30
2018-06-28T19:56:28.413Z,27.20
2018-06-28T19:58:57.971Z,27.10
2018-06-28T20:01:32.791Z,27.00
2018-06-28T20:04:07.796Z,26.90
2018-06-28T20:06:38.425Z,26.80
2018-06-28T20:09:09.339Z,26.70
2018-06-28T20:11:39.495Z,26.60
2018-06-28T20:14:16.678Z,26.50
2018-06-28T20:20:55.795Z,26.40
2018-06-28T20:23:25.262Z,26.30
2018-06-28T20:25:54.843Z,25.90
2018-06-28T20:28:29.784Z,25.80
2018-06-28T20:34:57.907Z,25.70
2018-06-28T20:37:27.366Z,25.60
2018-06-28T20:39:57.012Z,25.40
2018-06-28T20:44:55.768Z,25.10
2018-06-28T20:47:25.418Z,25.00
2018-06-28T20:49:54.971Z,25.00
2018-06-28T20:52:24.684Z,24.90
2018-06-28T20:54:54.139Z,24.80
2018-06-28T21:00:54.023Z,24.70
2018-06-28T21:03:23.547Z,24.70
2018-06-28T21:05:53.111Z,24.60
2018-06-28T21:08:22.638Z,24.60
2018-06-28T21:10:52.199Z,24.50
2018-06-28T21:13:21.923Z,24.50
2018-06-28T21:15:51.413Z,24.40
2018-06-28T21:18:20.812Z,24.30
2018-06-28T21:20:50.432Z,24.40
2018-06-28T21:23:20.011Z,24.40
2018-06-28T21:25:51.335Z,24.40
2018-06-28T21:28:21.186Z,24.40
2018-06-28T21:30:50.629Z,24.50
2018-06-28T21:33:20.179Z,24.30
2018-06-28T21:35:49.582Z,24.20
2018-06-28T21:38:18.950Z,24.20
2018-06-28T21:40:48.418Z,24.20
2018-06-28T21:43:17.851Z,24.10
2018-06-28T21:45:47.510Z,23.90
2018-06-28T21:48:17.098Z,23.70
2018-06-28T21:50:46.579Z,23.60
2018-06-28T21:53:17.331Z,23.40
2018-06-28T21:55:46.774Z,23.30
2018-06-28T21:58:16.238Z,23.20
2018-06-28T22:00:45.788Z,23.00
2018-06-28T22:03:15.389Z,22.90
2018-06-28T22:05:44.926Z,22.80
2018-06-28T22:08:14.532Z,22.80
2018-06-28T22:10:43.989Z,22.80
2018-06-28T22:13:13.347Z,22.80
2018-06-28T22:15:42.935Z,22.90
2018-06-28T22:18:12.302Z,22.90
2018-06-28T22:20:42.191Z,23.00
2018-06-28T22:23:11.642Z,22.90
2018-06-28T22:25:41.102Z,22.80
2018-06-28T22:28:10.688Z,22.70
2018-06-28T22:30:40.223Z,22.70
2018-06-28T22:33:09.792Z,22.60
2018-06-28T22:35:39.377Z,22.50
2018-06-28T22:38:09.005Z,22.30
2018-06-28T22:40:38.454Z,22.20
2018-06-28T22:43:08.045Z,22.10
2018-06-28T22:45:37.461Z,22.00
2018-06-28T22:48:08.243Z,22.00
2018-06-28T22:50:37.631Z,21.90
2018-06-28T22:53:07.275Z,21.70
2018-06-28T22:55:36.677Z,21.60
2018-06-28T22:58:06.174Z,21.40
2018-06-28T23:00:36.562Z,21.30
2018-06-28T23:03:06.195Z,21.20
2018-06-28T23:05:36.619Z,21.10
2018-06-28T23:08:06.219Z,21.00
2018-06-28T23:10:36.668Z,20.90
2018-06-28T23:13:06.357Z,20.90
2018-06-28T23:15:36.713Z,20.70
2018-06-28T23:18:06.635Z,20.70
2018-06-28T23:43:51.129Z,20.50
2018-06-28T23:46:20.674Z,20.40
2018-06-28T23:48:50.279Z,19.90
2018-06-28T23:51:19.879Z,19.90
2018-06-28T23:53:49.324Z,19.90
2018-06-28T23:56:18.866Z,19.90
2018-06-28T23:58:48.434Z,20.00
